createdAt,value
2019-03-28T00:00:10.251Z,102212.21
2019-03-28T00:02:39.660Z,102212.95
2019-03-28T00:05:09.364Z,102210.47
2019-03-28T00:07:38.724Z,102216.65
2019-03-28T00:10:08.587Z,102211.70
2019-03-28T00:12:38.096Z,102214.11
2019-03-28T00:15:08.288Z,102214.14
2019-03-28T00:17:37.869Z,102201.19
2019-03-28T00:20:07.505Z,102204.98
2019-03-28T00:22:49.576Z,102209.17
2019-03-28T00:25:31.897Z,102212.90
2019-03-28T00:28:01.274Z,102212.56
2019-03-28T00:30:30.794Z,102213.45
2019-03-28T00:33:00.237Z,102214.91
2019-03-28T00:35:29.701Z,102208.48
2019-03-28T00:37:59.241Z,102213.84
2019-03-28T00:40:30.220Z,102207.66
2019-03-28T00:43:00.353Z,102210.81
2019-03-28T00:45:29.930Z,102206.56
2019-03-28T00:47:59.375Z,102213.71
2019-03-28T00:50:28.804Z,102213.59
2019-03-28T00:52:58.330Z,102213.20
2019-03-28T00:55:27.866Z,102212.13
2019-03-28T00:57:57.319Z,102206.82
2019-03-28T01:00:26.890Z,102198.95
2019-03-28T01:02:56.397Z,102193.41
2019-03-28T01:05:25.801Z,102188.80
2019-03-28T01:07:55.314Z,102192.89
2019-03-28T01:10:24.746Z,102192.27
2019-03-28T01:12:54.176Z,102190.81
2019-03-28T01:15:23.609Z,102194.06
2019-03-28T01:17:53.046Z,102191.30
2019-03-28T01:20:22.458Z,102189.25
2019-03-28T01:22:51.808Z,102190.47
2019-03-28T01:25:21.192Z,102191.70
2019-03-28T01:27:50.622Z,102182.27
2019-03-28T01:30:19.940Z,102189.15
2019-03-28T01:32:49.383Z,102187.34
2019-03-28T01:35:18.814Z,102191.46
2019-03-28T01:37:48.242Z,102188.44
2019-03-28T01:40:17.658Z,102190.12
2019-03-28T01:42:47.089Z,102191.67
2019-03-28T01:45:16.471Z,102189.03
2019-03-28T01:47:45.994Z,102189.41
2019-03-28T01:50:15.566Z,102190.72
2019-03-28T01:52:44.996Z,102183.18
2019-03-28T01:55:14.581Z,102190.14
2019-03-28T01:57:43.991Z,102185.74
2019-03-28T02:00:13.464Z,102178.84
2019-03-28T02:02:42.796Z,102180.66
2019-03-28T02:05:13.823Z,102188.98
2019-03-28T02:07:43.273Z,102185.13
2019-03-28T02:10:12.927Z,102187.41
2019-03-28T02:12:42.564Z,102180.23
2019-03-28T02:15:12.471Z,102188.86
2019-03-28T02:17:41.954Z,102187.10
2019-03-28T02:20:11.830Z,102188.43
2019-03-28T02:22:41.309Z,102181.16
2019-03-28T02:25:12.371Z,102176.73
2019-03-28T02:27:41.909Z,102184.69
2019-03-28T02:30:11.816Z,102181.52
2019-03-28T02:32:41.134Z,102183.84
2019-03-28T02:35:10.829Z,102183.21
2019-03-28T02:37:40.296Z,102189.61
2019-03-28T02:40:09.904Z,102195.05
2019-03-28T02:42:39.289Z,102192.65
2019-03-28T02:45:09.141Z,102193.90
2019-03-28T02:47:38.558Z,102194.25
2019-03-28T02:50:08.560Z,102194.70
2019-03-28T02:52:37.977Z,102191.55
2019-03-28T02:55:07.804Z,102186.94
2019-03-28T02:57:41.451Z,102197.11
2019-03-28T03:00:09.491Z,102193.88
2019-03-28T03:02:38.983Z,102199.00
2019-03-28T03:05:08.781Z,102200.02
2019-03-28T03:07:38.196Z,102191.86
2019-03-28T03:10:07.814Z,102195.50
2019-03-28T03:12:37.189Z,102187.42
2019-03-28T03:15:06.811Z,102188.03
2019-03-28T03:17:36.287Z,102190.73
2019-03-28T03:20:07.123Z,102187.95
2019-03-28T03:22:36.443Z,102188.20
2019-03-28T03:25:06.308Z,102191.91
2019-03-28T03:27:35.895Z,102195.59
2019-03-28T03:30:06.993Z,102183.14
2019-03-28T03:32:36.631Z,102183.14
2019-03-28T03:35:06.563Z,102194.55
2019-03-28T03:37:36.199Z,102193.45
2019-03-28T03:40:08.025Z,102198.31
2019-03-28T03:42:37.655Z,102203.47
2019-03-28T03:45:09.034Z,102206.61
2019-03-28T03:47:38.767Z,102202.69
2019-03-28T03:50:09.097Z,102197.82
2019-03-28T03:52:38.500Z,102206.48
2019-03-28T03:55:08.588Z,102206.44
2019-03-28T03:57:38.095Z,102209.45
2019-03-28T04:00:08.952Z,102215.92
2019-03-28T04:02:38.334Z,102213.09
2019-03-28T04:05:07.852Z,102212.73
2019-03-28T04:07:37.288Z,102217.73
2019-03-28T04:10:07.213Z,102214.84
2019-03-28T04:12:36.612Z,102214.64
2019-03-28T04:15:06.443Z,102216.17
2019-03-28T04:17:36.045Z,102219.78
2019-03-28T04:20:06.249Z,102214.67
2019-03-28T04:22:36.977Z,102210.92
2019-03-28T04:25:07.093Z,102214.83
2019-03-28T04:27:36.548Z,102222.11
2019-03-28T04:30:06.036Z,102219.76
2019-03-28T04:32:35.538Z,102225.47
2019-03-28T04:35:05.245Z,102237.86
2019-03-28T04:37:34.519Z,102228.62
2019-03-28T04:40:04.548Z,102228.75
2019-03-28T04:42:34.038Z,102236.95
2019-03-28T04:45:05.498Z,102237.07
2019-03-28T04:47:34.993Z,102236.50
2019-03-28T04:50:05.388Z,102238.09
2019-03-28T04:52:34.788Z,102244.40
2019-03-28T04:55:04.525Z,102244.58
2019-03-28T04:57:33.874Z,102252.90
2019-03-28T05:00:03.524Z,102240.61
2019-03-28T05:02:32.940Z,102246.36
2019-03-28T05:05:02.295Z,102247.68
2019-03-28T05:07:31.664Z,102252.58
2019-03-28T05:10:01.016Z,102248.13
2019-03-28T05:12:30.343Z,102244.41
2019-03-28T05:15:01.435Z,102252.44
2019-03-28T05:17:30.860Z,102251.59
2019-03-28T05:20:00.503Z,102263.31
2019-03-28T05:22:29.995Z,102261.81
2019-03-28T05:24:59.408Z,102264.42
2019-03-28T05:27:28.892Z,102267.61
2019-03-28T05:29:58.330Z,102265.87
2019-03-28T05:32:27.849Z,102267.73
2019-03-28T05:34:57.662Z,102268.47
2019-03-28T05:37:27.124Z,102276.95
2019-03-28T05:39:56.525Z,102279.69
2019-03-28T05:42:26.052Z,102286.48
2019-03-28T05:44:55.585Z,102286.48
2019-03-28T05:47:24.958Z,102289.39
2019-03-28T05:49:54.472Z,102295.41
2019-03-28T05:52:23.995Z,102295.41
2019-03-28T05:54:53.507Z,102296.21
2019-03-28T05:57:23.033Z,102296.97
2019-03-28T05:59:52.571Z,102304.59
2019-03-28T06:02:22.001Z,102300.48
2019-03-28T06:04:51.497Z,102303.38
2019-03-28T06:07:20.982Z,102310.54
2019-03-28T06:09:50.342Z,102305.72
2019-03-28T06:12:19.875Z,102306.23
2019-03-28T06:14:49.295Z,102301.96
2019-03-28T06:17:18.882Z,102304.28
2019-03-28T06:19:48.331Z,102303.73
2019-03-28T06:22:17.723Z,102306.16
2019-03-28T06:24:47.168Z,102299.51
2019-03-28T06:27:16.724Z,102301.13
2019-03-28T06:29:46.214Z,102304.56
2019-03-28T06:32:15.736Z,102314.03
2019-03-28T06:34:45.155Z,102315.75
2019-03-28T06:37:14.532Z,102312.35
2019-03-28T06:39:44.031Z,102313.20
2019-03-28T06:42:13.549Z,102314.99
2019-03-28T06:44:43.052Z,102317.44
2019-03-28T06:47:12.620Z,102319.52
2019-03-28T06:49:42.186Z,102319.41
2019-03-28T06:52:11.606Z,102319.05
2019-03-28T06:54:41.170Z,102309.88
2019-03-28T06:57:10.776Z,102309.02
2019-03-28T06:59:40.187Z,102309.86
2019-03-28T07:02:09.612Z,102307.58
2019-03-28T07:04:39.086Z,102313.36
2019-03-28T07:07:08.663Z,102313.14
2019-03-28T07:09:38.081Z,102305.87
2019-03-28T07:12:07.441Z,102307.06
2019-03-28T07:14:37.219Z,102304.77
2019-03-28T07:17:06.571Z,102302.84
2019-03-28T07:19:35.989Z,102306.48
2019-03-28T07:22:05.536Z,102301.52
2019-03-28T07:24:35.360Z,102304.41
2019-03-28T07:27:04.746Z,102300.41
2019-03-28T07:29:34.104Z,102298.81
2019-03-28T07:32:03.616Z,102293.12
2019-03-28T07:34:33.058Z,102290.81
2019-03-28T07:37:02.539Z,102293.69
2019-03-28T07:39:31.985Z,102288.33
2019-03-28T07:42:01.548Z,102287.36
2019-03-28T07:44:31.093Z,102284.22
2019-03-28T07:47:00.618Z,102290.40
2019-03-28T07:49:30.185Z,102287.86
2019-03-28T07:51:59.683Z,102281.22
2019-03-28T07:54:29.793Z,102289.67
2019-03-28T07:56:59.283Z,102289.88
2019-03-28T07:59:28.756Z,102296.03
2019-03-28T08:01:58.331Z,102294.45
2019-03-28T08:04:28.044Z,102288.74
2019-03-28T08:06:57.640Z,102293.56
2019-03-28T08:09:36.527Z,102294.42
2019-03-28T08:11:58.291Z,102295.47
2019-03-28T08:14:27.749Z,102298.39
2019-03-28T08:16:57.198Z,102305.41
2019-03-28T08:19:26.680Z,102297.04
2019-03-28T08:21:56.134Z,102295.40
2019-03-28T08:24:25.773Z,102289.11
2019-03-28T08:26:55.287Z,102294.07
2019-03-28T08:29:25.032Z,102291.53
2019-03-28T08:31:55.361Z,102295.44
2019-03-28T08:34:24.894Z,102294.95
2019-03-28T08:36:54.387Z,102297.58
2019-03-28T08:39:24.684Z,102292.95
2019-03-28T08:41:54.090Z,102300.13
2019-03-28T08:44:23.457Z,102289.29
2019-03-28T08:46:52.772Z,102294.39
2019-03-28T08:49:22.103Z,102300.95
2019-03-28T08:51:51.637Z,102302.72
2019-03-28T08:54:21.186Z,102298.41
2019-03-28T08:56:50.863Z,102291.08
2019-03-28T08:59:20.404Z,102293.27
2019-03-28T09:01:49.899Z,102294.37
2019-03-28T09:04:19.457Z,102295.95
2019-03-28T09:06:48.947Z,102297.65
2019-03-28T09:09:21.043Z,102296.21
2019-03-28T09:11:49.586Z,102293.19
2019-03-28T09:14:19.004Z,102294.54
2019-03-28T09:16:48.497Z,102292.16
2019-03-28T09:19:18.022Z,102291.41
2019-03-28T09:21:47.324Z,102294.33
2019-03-28T09:24:16.943Z,102292.94
2019-03-28T09:26:46.409Z,102286.75
2019-03-28T09:29:15.962Z,102283.09
2019-03-28T09:31:45.601Z,102284.80
2019-03-28T09:34:15.121Z,102282.98
2019-03-28T09:36:44.651Z,102287.52
2019-03-28T09:39:14.199Z,102290.27
2019-03-28T09:41:43.562Z,102286.24
2019-03-28T09:44:13.135Z,102286.73
2019-03-28T09:46:42.642Z,102284.22
2019-03-28T09:49:12.059Z,102281.52
2019-03-28T09:51:41.404Z,102288.58
2019-03-28T09:54:10.907Z,102287.25
2019-03-28T09:56:40.380Z,102286.91
2019-03-28T10:01:37.682Z,102283.88
2019-03-28T10:04:07.226Z,102290.94
2019-03-28T10:06:36.730Z,102283.85
2019-03-28T10:09:07.664Z,102282.17
2019-03-28T10:11:37.234Z,102282.17
2019-03-28T10:14:06.790Z,102289.91
2019-03-28T10:16:36.419Z,102285.52
2019-03-28T10:19:06.039Z,102283.48
2019-03-28T10:21:37.535Z,102288.49
2019-03-28T10:24:06.674Z,102282.05
2019-03-28T10:26:36.104Z,102282.38
2019-03-28T10:29:05.845Z,102282.05
2019-03-28T10:31:35.441Z,102273.97
2019-03-28T10:34:04.936Z,102281.22
2019-03-28T10:36:34.349Z,102279.36
2019-03-28T10:39:05.558Z,102272.36
2019-03-28T10:41:35.066Z,102268.26
2019-03-28T10:44:04.720Z,102269.06
2019-03-28T10:46:34.352Z,102268.63
2019-03-28T10:49:03.952Z,102273.75
2019-03-28T10:51:33.632Z,102269.91
2019-03-28T10:54:03.065Z,102269.91
2019-03-28T10:56:32.504Z,102239.20
2019-03-28T10:59:01.960Z,102259.32
2019-03-28T11:01:47.587Z,102262.50
2019-03-28T11:04:02.828Z,102264.21
2019-03-28T11:06:32.520Z,102256.34
2019-03-28T11:09:02.148Z,102244.38
2019-03-28T11:11:31.608Z,102252.61
2019-03-28T11:14:01.057Z,102239.40
2019-03-28T11:16:30.730Z,102239.41
2019-03-28T11:19:00.169Z,102241.47
2019-03-28T11:21:29.575Z,102236.63
2019-03-28T11:23:58.956Z,102239.06
2019-03-28T11:26:28.558Z,102236.08
2019-03-28T11:29:00.823Z,102232.16
2019-03-28T11:31:29.270Z,102242.58
2019-03-28T11:33:58.723Z,102234.59
2019-03-28T11:36:28.103Z,102239.02
2019-03-28T11:38:57.620Z,102200.46
2019-03-28T11:41:27.073Z,102233.23
2019-03-28T11:43:56.525Z,102232.44
2019-03-28T11:46:26.155Z,102223.37
2019-03-28T11:48:55.704Z,102222.53
2019-03-28T11:51:25.156Z,102220.61
2019-03-28T11:53:54.672Z,102219.95
2019-03-28T11:56:24.321Z,102215.37
2019-03-28T11:58:53.836Z,102217.88
2019-03-28T12:01:23.295Z,102214.30
2019-03-28T12:03:52.646Z,102216.75
2019-03-28T12:06:22.174Z,102218.95
2019-03-28T12:08:51.617Z,102220.27
2019-03-28T12:11:21.057Z,102222.06
2019-03-28T12:13:50.550Z,102210.83
2019-03-28T12:16:20.052Z,102207.83
2019-03-28T12:18:49.402Z,102208.46
2019-03-28T12:21:18.796Z,102204.20
2019-03-28T12:23:48.312Z,102198.42
2019-03-28T12:26:17.837Z,102205.19
2019-03-28T12:28:47.252Z,102196.52
2019-03-28T12:31:16.785Z,102197.43
2019-03-28T12:33:46.359Z,102191.76
2019-03-28T12:36:15.850Z,102196.54
2019-03-28T12:38:45.394Z,102200.02
2019-03-28T12:41:14.903Z,102191.73
2019-03-28T12:43:44.407Z,102198.75
2019-03-28T12:46:14.055Z,102197.95
2019-03-28T12:48:43.367Z,102200.75
2019-03-28T12:51:12.817Z,102196.78
2019-03-28T12:53:42.332Z,102200.48
2019-03-28T12:56:12.468Z,102200.38
2019-03-28T12:58:42.144Z,102199.86
2019-03-28T13:01:12.038Z,102197.89
2019-03-28T13:03:45.940Z,102197.89
2019-03-28T13:06:12.583Z,102197.62
2019-03-28T13:08:42.182Z,102189.59
2019-03-28T13:11:11.712Z,102198.16
2019-03-28T13:13:41.299Z,102188.11
2019-03-28T13:16:10.906Z,102176.44
2019-03-28T13:18:40.309Z,102183.53
2019-03-28T13:21:13.806Z,102177.14
2019-03-28T13:23:40.682Z,102175.22
2019-03-28T13:26:10.089Z,102173.67
2019-03-28T13:28:39.537Z,102175.60
2019-03-28T13:31:09.077Z,102175.30
2019-03-28T13:33:38.695Z,102175.69
2019-03-28T13:36:08.962Z,102167.70
2019-03-28T13:38:38.397Z,102165.08
2019-03-28T13:41:07.903Z,102167.22
2019-03-28T13:43:37.740Z,102159.14
2019-03-28T13:46:07.242Z,102155.17
2019-03-28T13:48:36.718Z,102157.09
2019-03-28T13:51:06.154Z,102163.00
2019-03-28T13:53:39.876Z,102162.09
2019-03-28T13:56:06.886Z,102157.30
2019-03-28T13:58:36.286Z,102153.27
2019-03-28T14:01:05.824Z,102160.98
2019-03-28T14:03:35.355Z,102159.68
2019-03-28T14:06:04.904Z,102150.69
2019-03-28T14:08:34.339Z,102153.77
2019-03-28T14:11:03.776Z,102152.36
2019-03-28T14:13:33.230Z,102146.36
2019-03-28T14:16:02.614Z,102141.66
2019-03-28T14:18:32.039Z,102139.47
2019-03-28T14:21:01.288Z,102133.72
2019-03-28T14:23:30.740Z,102129.85
2019-03-28T14:26:00.571Z,102132.88
2019-03-28T14:28:30.186Z,102125.06
2019-03-28T14:31:00.963Z,102124.07
2019-03-28T14:33:30.601Z,102124.58
2019-03-28T14:36:00.132Z,102123.16
2019-03-28T14:38:29.582Z,102133.46
2019-03-28T14:40:59.076Z,102133.62
2019-03-28T14:43:28.534Z,102132.55
2019-03-28T14:45:57.942Z,102139.72
2019-03-28T14:48:27.478Z,102130.34
2019-03-28T14:50:57.141Z,102128.06
2019-03-28T14:53:26.531Z,102130.47
2019-03-28T14:55:56.329Z,102130.47
2019-03-28T14:58:27.163Z,102128.86
2019-03-28T15:00:56.787Z,102120.84
2019-03-28T15:03:27.462Z,102124.34
2019-03-28T15:05:57.218Z,102121.33
2019-03-28T15:08:26.611Z,102122.53
2019-03-28T15:10:56.022Z,102121.47
2019-03-28T15:13:25.453Z,102119.41
2019-03-28T15:15:54.970Z,102116.95
2019-03-28T15:18:24.459Z,102120.30
2019-03-28T15:20:53.974Z,102123.39
2019-03-28T15:23:23.374Z,102120.31
2019-03-28T15:25:52.946Z,102126.31
2019-03-28T15:28:22.543Z,102118.70
2019-03-28T15:30:51.983Z,102109.88
2019-03-28T15:33:21.610Z,102114.94
2019-03-28T15:35:51.014Z,102118.80
2019-03-28T15:38:20.381Z,102114.42
2019-03-28T15:40:49.851Z,102110.99
2019-03-28T15:43:19.410Z,102116.64
2019-03-28T15:45:48.934Z,102112.83
2019-03-28T15:48:18.435Z,102114.66
2019-03-28T15:50:47.946Z,102109.14
2019-03-28T15:53:17.444Z,102112.00
2019-03-28T15:55:46.900Z,102111.67
2019-03-28T15:58:23.032Z,102111.72
2019-03-28T16:00:47.862Z,102112.54
2019-03-28T16:03:17.372Z,102108.66
2019-03-28T16:05:57.480Z,102116.30
2019-03-28T16:08:18.123Z,102098.72
2019-03-28T16:10:47.630Z,102110.20
2019-03-28T16:13:17.135Z,102097.52
2019-03-28T16:15:46.510Z,102103.06
2019-03-28T16:18:16.045Z,102106.38
2019-03-28T16:20:45.593Z,102102.62
2019-03-28T16:23:15.042Z,102101.06
2019-03-28T16:25:44.548Z,102102.58
2019-03-28T16:28:14.108Z,102098.22
2019-03-28T16:30:43.708Z,102092.31
2019-03-28T16:33:13.301Z,102095.73
2019-03-28T16:35:42.882Z,102097.98
2019-03-28T16:38:12.385Z,102092.75
2019-03-28T16:40:45.001Z,102092.88
2019-03-28T16:43:14.473Z,102100.59
2019-03-28T16:45:44.474Z,102104.64
2019-03-28T16:48:15.154Z,102098.28
2019-03-28T16:50:44.717Z,102106.16
2019-03-28T16:53:14.186Z,102113.52
2019-03-28T16:55:43.614Z,102107.83
2019-03-28T16:58:13.092Z,102107.91
2019-03-28T17:00:42.527Z,102105.84
2019-03-28T17:03:11.989Z,102110.61
2019-03-28T17:05:41.970Z,102106.08
2019-03-28T17:08:12.192Z,102104.73
2019-03-28T17:10:52.696Z,102103.02
2019-03-28T17:13:22.282Z,102105.30
2019-03-28T17:15:52.003Z,102106.39
2019-03-28T17:18:21.514Z,102106.39
2019-03-28T17:20:51.057Z,102108.17
2019-03-28T17:23:21.003Z,102111.13
2019-03-28T17:25:50.461Z,102112.38
2019-03-28T17:28:19.960Z,102111.67
2019-03-28T17:30:49.487Z,102108.65
2019-03-28T17:33:18.946Z,102118.27
2019-03-28T17:35:49.012Z,102118.00
2019-03-28T17:38:18.713Z,102118.91
2019-03-28T17:40:48.323Z,102118.22
2019-03-28T17:43:17.902Z,102125.05
2019-03-28T17:45:47.603Z,102128.24
2019-03-28T17:48:17.159Z,102127.86
2019-03-28T17:50:46.799Z,102128.59
2019-03-28T17:53:16.340Z,102128.16
2019-03-28T17:55:45.956Z,102126.16
2019-03-28T17:58:15.451Z,102131.20
2019-03-28T18:00:46.956Z,102128.72
2019-03-28T18:03:30.227Z,102128.79
2019-03-28T18:05:57.384Z,102124.05
2019-03-28T18:08:19.777Z,102126.74
2019-03-28T18:10:49.438Z,102134.89
2019-03-28T18:13:18.950Z,102127.14
2019-03-28T18:15:48.474Z,102136.56
2019-03-28T18:18:18.084Z,102131.96
2019-03-28T18:20:47.677Z,102134.44
2019-03-28T18:23:17.530Z,102140.41
2019-03-28T18:25:46.860Z,102139.09
2019-03-28T18:28:16.332Z,102147.17
2019-03-28T18:30:46.130Z,102145.89
2019-03-28T18:33:15.666Z,102146.77
2019-03-28T18:35:45.312Z,102148.36
2019-03-28T18:38:14.858Z,102148.05
2019-03-28T18:40:44.343Z,102156.49
2019-03-28T18:43:13.793Z,102166.98
2019-03-28T18:45:43.224Z,102164.80
2019-03-28T18:48:26.928Z,102163.67
2019-03-28T18:50:43.934Z,102153.70
2019-03-28T18:53:13.339Z,102165.64
2019-03-28T18:55:42.755Z,102168.16
2019-03-28T18:58:24.727Z,102168.15
2019-03-28T19:00:58.725Z,102174.27
2019-03-28T19:03:30.473Z,102173.25
2019-03-28T19:06:00.677Z,102174.77
2019-03-28T19:08:30.971Z,102172.23
2019-03-28T19:11:00.615Z,102176.98
2019-03-28T19:13:30.107Z,102176.66
2019-03-28T19:16:02.902Z,102179.14
2019-03-28T19:18:40.429Z,102178.81
2019-03-28T19:21:10.460Z,102176.23
2019-03-28T19:23:40.400Z,102183.00
2019-03-28T19:26:13.890Z,102183.48
2019-03-28T19:28:43.291Z,102180.34
2019-03-28T19:31:13.635Z,102179.17
2019-03-28T19:33:43.169Z,102171.78
2019-03-28T19:36:14.055Z,102178.87
2019-03-28T19:38:51.987Z,102176.48
2019-03-28T19:41:36.570Z,102178.84
2019-03-28T19:44:08.104Z,102177.32
2019-03-28T19:46:51.292Z,102176.45
2019-03-28T19:49:21.307Z,102072.61
2019-03-28T19:51:54.929Z,102166.69
2019-03-28T19:54:43.815Z,102171.93
2019-03-28T19:57:13.906Z,102171.09
2019-03-28T19:59:43.289Z,102168.43
2019-03-28T20:02:14.247Z,102163.88
2019-03-28T20:04:45.028Z,102167.74
2019-03-28T20:07:21.348Z,102159.00
2019-03-28T20:09:45.830Z,102163.92
2019-03-28T20:12:15.419Z,102163.22
2019-03-28T20:14:45.085Z,102154.97
2019-03-28T20:17:15.083Z,102154.31
2019-03-28T20:19:44.516Z,102157.84
2019-03-28T20:22:13.967Z,102159.34
2019-03-28T20:24:58.068Z,102165.37
2019-03-28T20:27:19.776Z,102162.05
2019-03-28T20:29:49.221Z,102158.31
2019-03-28T20:32:18.655Z,102150.27
2019-03-28T20:34:49.243Z,102149.25
2019-03-28T20:37:19.368Z,102153.49
2019-03-28T20:40:19.284Z,102147.93
2019-03-28T20:42:55.176Z,102149.63
2019-03-28T20:45:36.855Z,102150.62
2019-03-28T20:48:14.409Z,102155.52
2019-03-28T20:50:46.679Z,102152.99
2019-03-28T20:53:19.723Z,102157.70
2019-03-28T20:55:51.776Z,102170.95
2019-03-28T20:58:24.036Z,102165.05
2019-03-28T21:00:54.117Z,102171.05
2019-03-28T21:03:25.489Z,102166.52
2019-03-28T21:06:15.025Z,102169.34
2019-03-28T21:08:37.305Z,102166.36
2019-03-28T21:11:07.116Z,102169.75
2019-03-28T21:13:36.682Z,102164.52
2019-03-28T21:16:06.367Z,102171.38
2019-03-28T21:18:36.494Z,102168.87
2019-03-28T21:21:06.025Z,102168.02
2019-03-28T21:23:35.533Z,102164.02
2019-03-28T21:26:05.047Z,102162.31
2019-03-28T21:28:46.391Z,102166.35
2019-03-28T21:31:05.771Z,102165.15
2019-03-28T21:33:35.224Z,102160.77
2019-03-28T21:36:05.089Z,102157.55
2019-03-28T21:38:34.535Z,102150.81
2019-03-28T21:41:04.271Z,102158.05
2019-03-28T21:43:46.043Z,102149.83
2019-03-28T21:46:15.556Z,102145.77
2019-03-28T21:48:45.010Z,102143.56
2019-03-28T21:51:14.704Z,102140.32
2019-03-28T21:53:45.528Z,102139.22
2019-03-28T21:56:15.261Z,102138.84
2019-03-28T21:58:44.812Z,102135.45
2019-03-28T22:01:14.373Z,102144.22
2019-03-28T22:03:53.273Z,102130.95
2019-03-28T22:06:25.409Z,102136.05
2019-03-28T22:09:04.460Z,102133.45
2019-03-28T22:11:34.768Z,102130.70
2019-03-28T22:14:07.927Z,102139.38
2019-03-28T22:16:38.987Z,102130.49
2019-03-28T22:19:12.776Z,102134.94
2019-03-28T22:21:47.979Z,102135.76
2019-03-28T22:24:22.953Z,102138.78
2019-03-28T22:27:00.666Z,102137.44
2019-03-28T22:29:55.800Z,102135.94
2019-03-28T22:32:27.724Z,102133.36
2019-03-28T22:35:07.327Z,102134.31
2019-03-28T22:37:39.611Z,102135.48
2019-03-28T22:40:16.561Z,102134.38
2019-03-28T22:42:49.249Z,102132.84
2019-03-28T22:45:21.416Z,102134.47
2019-03-28T22:48:10.148Z,102141.86
2019-03-28T22:50:48.273Z,102137.72
2019-03-28T22:53:28.660Z,102136.81
2019-03-28T22:56:02.914Z,102139.28
2019-03-28T22:58:36.585Z,102138.88
2019-03-28T23:01:11.479Z,102147.59
2019-03-28T23:03:58.083Z,102136.98
2019-03-28T23:06:41.781Z,102139.45
2019-03-28T23:09:14.003Z,102136.61
2019-03-28T23:11:50.925Z,102141.40
2019-03-28T23:14:22.562Z,102139.39
2019-03-28T23:16:59.699Z,102142.30
2019-03-28T23:19:41.117Z,102143.36
2019-03-28T23:22:13.053Z,102150.48
2019-03-28T23:24:47.585Z,102060.47
2019-03-28T23:27:27.548Z,102148.28
2019-03-28T23:30:10.074Z,102152.80
2019-03-28T23:32:57.641Z,102150.38
2019-03-28T23:35:37.307Z,102157.31
2019-03-28T23:38:11.853Z,102153.72
2019-03-28T23:40:50.305Z,102150.91
2019-03-28T23:43:21.420Z,102154.95
2019-03-28T23:45:55.748Z,102151.20
2019-03-28T23:48:30.125Z,102150.45
2019-03-28T23:51:02.786Z,102147.78
2019-03-28T23:53:39.605Z,102149.90
2019-03-28T23:56:20.130Z,102150.95
2019-03-28T23:59:04.291Z,102153.95
